• Join FlightAware (Why Join?)
  • Login
  • US Flag 
08:42AM EST


 

Airport Tracker/Info


-or-


 

Live Flight TrackerFlight Track Log ✈ N804JJ ✈ 17-Sep-2013 ✈ KHTO - KRYY

Flight Track Log - Related Links

Times and Time Zones

All times are in EDT time to prevent confusion due to time zone crossing. See the N804JJ flight status page for this flight to view local times or setup timezone preferences in your user account.

Time Position Orientation Groundspeed Altitude Reporting Facility
EDT Latitude Longitude Course Direction KTS MPH feet Rate Location/Type
04:39PM 40.9186 -72.2972 239° Southwest 251 289 5,700  Level Boston Center
04:40PM 40.8792 -72.3853 239° Southwest 257 296 9,300 2,460 Climbing Boston Center
04:41PM 40.8061 -72.4619 218° Southwest 278 320 10,600 1,680 Climbing Boston Center
04:42PM 40.7289 -72.5497 221° Southwest 325 374 12,800 2,520 Climbing Boston Center
04:43PM 40.6539 -72.6397 222° Southwest 361 415 15,700 2,520 Climbing Boston Center
04:44PM 40.5972 -72.7461 235° Southwest 360 414 17,800 1,560 Climbing Boston Center
04:45PM 40.5678 -72.8828 254° West 365 420 18,800 1,740 Climbing Boston Center
04:47PM 40.5464 -73.1364 264° West 395 455 22,800 1,680 Climbing New York Center
04:48PM 40.5436 -73.2756 269° West 383 441 23,600 960 Climbing New York Center
04:49PM 40.5050 -73.4214 251° West 396 456 24,800 1,500 Climbing New York Center
04:50PM 40.4661 -73.5644 250° West 408 470 26,700 1,620 Climbing New York Center
04:51PM 40.4253 -73.7019 249° West 413 475 28,100 1,320 Climbing New York Center
04:52PM 40.3908 -73.8258 250° West 418 481 29,400 1,320 Climbing New York Center
04:53PM 40.3517 -73.9683 250° West 418 481 30,800 1,440 Climbing New York Center
04:54PM 40.3289 -74.1089 258° West 411 473 32,300 1,200 Climbing New York Center
04:55PM 40.3667 -74.2469 290° West 390 449 33,200 540 Climbing New York Center
04:56PM 40.3664 -74.3967 270° West 395 455 33,400 300 Climbing New York Center
04:57PM 40.3325 -74.5447 253° West 413 475 33,800 240 Climbing New York Center
04:58PM 40.3044 -74.7008 257° West 424 488 33,900 60 Climbing New York Center
04:59PM 40.2742 -74.8597 256° West 446 513 34,000  Climbing New York Center
05:00PM 40.2425 -75.0400 257° West 463 533 34,000  Level New York Center
05:01PM 40.2117 -75.2014 256° West 468 539 34,000  Level New York Center
05:02PM 40.1761 -75.3647 254° West 468 539 34,000  Level New York Center
05:03PM 40.0939 -75.4950 231° Southwest 462 532 34,000  Level New York Center
05:04PM 40.0133 -75.6306 232° Southwest 468 539 34,000  Level New York Center
05:05PM 39.9328 -75.7656 232° Southwest 475 547 34,000  Level New York Center
05:06PM 39.8519 -75.8978 231° Southwest 480 552 34,000  Level New York Center
05:08PM 39.7397 -76.0853 232° Southwest 480 552 34,000  Level Washington Center
05:09PM 39.6600 -76.2194 232° Southwest 475 547 34,000  Level Washington Center
05:10PM 39.5800 -76.3536 232° Southwest 475 547 34,000  Level Washington Center
05:11PM 39.4997 -76.4872 232° Southwest 480 552 34,000  Level Washington Center
05:12PM 39.4156 -76.6150 230° Southwest 480 552 34,000  Level Washington Center
05:13PM 39.3286 -76.7614 233° Southwest 480 552 34,000  Level Washington Center
05:14PM 39.2483 -76.8889 231° Southwest 474 545 34,000  Level Washington Center
05:15PM 39.1675 -77.0211 232° Southwest 474 545 34,000  Level Washington Center
05:16PM 39.0889 -77.1508 232° Southwest 474 545 34,000  Level Washington Center
05:17PM 39.0058 -77.2825 231° Southwest 474 545 34,000  Level Washington Center
05:18PM 38.9267 -77.4089 231° Southwest 469 540 34,000  Level Washington Center
05:19PM 38.8436 -77.5347 230° Southwest 469 540 34,000  Level Washington Center
05:20PM 38.7642 -77.6683 233° Southwest 469 540 34,000  Level Washington Center
05:21PM 38.6825 -77.7989 231° Southwest 474 545 34,000  Level Washington Center
05:22PM 38.6008 -77.9319 232° Southwest 474 545 34,000  Level Washington Center
05:23PM 38.5339 -78.0494 234° Southwest 474 545 34,000  Level Washington Center
05:24PM 38.4539 -78.1819 232° Southwest 474 545 34,000  Level Washington Center
05:25PM 38.3781 -78.3117 233° Southwest 474 545 34,000  Level Washington Center
05:26PM 38.3000 -78.4439 233° Southwest 474 545 34,000  Level Washington Center
05:27PM 38.2172 -78.5914 234° Southwest 469 540 34,000  Level Washington Center
05:28PM 38.1389 -78.7203 232° Southwest 469 540 34,000  Level Washington Center
05:29PM 38.0689 -78.8361 233° Southwest 469 540 34,000  Level Washington Center
05:30PM 37.9903 -78.9669 233° Southwest 475 547 34,000  Level Washington Center
05:31PM 37.9072 -79.1003 232° Southwest 475 547 34,000  Level Washington Center
05:32PM 37.8133 -79.2350 229° Southwest 475 547 34,000  Level Washington Center
05:33PM 37.7264 -79.3569 228° Southwest 475 547 34,000  Level Washington Center
05:34PM 37.6436 -79.4656 226° Southwest 475 547 34,000  Level Washington Center
05:35PM 37.5475 -79.5969 227° Southwest 481 554 34,000  Level Washington Center
05:36PM 37.4667 -79.7053 227° Southwest 475 547 34,000  Level Washington Center
05:37PM 37.3678 -79.8489 229° Southwest 485 558 34,000  Level Washington Center
05:39PM 37.1553 -80.1275 226° Southwest 462 532 34,000  Level Atlanta Center
05:40PM 37.0672 -80.2464 227° Southwest 462 532 34,000  Level Atlanta Center
05:41PM 36.9792 -80.3647 227° Southwest 462 532 34,000  Level Atlanta Center
05:42PM 36.8989 -80.4725 227° Southwest 467 537 34,000  Level Atlanta Center
05:43PM 36.8086 -80.5906 226° Southwest 467 537 34,000  Level Atlanta Center
05:44PM 36.7142 -80.7189 227° Southwest 459 528 34,000  Level Atlanta Center
05:45PM 36.6256 -80.8364 227° Southwest 464 534 34,000  Level Atlanta Center
05:46PM 36.5347 -80.9564 227° Southwest 464 534 34,000  Level Atlanta Center
05:47PM 36.4478 -81.0706 227° Southwest 458 527 34,000  Level Atlanta Center
05:48PM 36.3611 -81.1897 228° Southwest 463 533 34,000  Level Atlanta Center
05:49PM 36.2719 -81.3039 226° Southwest 463 533 34,000  Level Atlanta Center
05:50PM 36.1847 -81.4225 228° Southwest 463 533 34,000  Level Atlanta Center
05:51PM 36.0933 -81.5386 226° Southwest 463 533 34,000  Level Atlanta Center
05:52PM 36.0058 -81.6489 226° Southwest 456 525 34,000  Level Atlanta Center
05:53PM 35.9183 -81.7669 228° Southwest 461 531 34,000  Level Atlanta Center
05:54PM 35.8286 -81.8822 226° Southwest 461 531 34,000  Level Atlanta Center
05:55PM 35.7389 -81.9944 225° Southwest 461 531 34,000  Level Atlanta Center
05:56PM 35.6508 -82.1067 226° Southwest 461 531 34,000  Level Atlanta Center
05:57PM 35.5608 -82.2211 226° Southwest 461 531 34,000  Level Atlanta Center
05:58PM 35.4831 -82.3197 226° Southwest 456 525 34,000 -660 Level Atlanta Center
05:59PM 35.4075 -82.4514 235° Southwest 466 536 32,700 -1,500 Descending Atlanta Center
06:00PM 35.3217 -82.5956 234° Southwest 472 543 31,000 -1,740 Descending Atlanta Center
06:01PM 35.2500 -82.7164 234° Southwest 483 556 29,300 -2,640 Descending Atlanta Center
06:02PM 35.1722 -82.8497 235° Southwest 488 562 25,800 -2,400 Descending Atlanta Center
06:03PM 35.0897 -82.9778 232° Southwest 488 562 24,500 -1,380 Descending Atlanta Center
06:04PM 35.0178 -83.1056 236° Southwest 481 554 23,100 -1,560 Descending Atlanta Center
06:05PM 34.9414 -83.2281 233° Southwest 475 547 21,400 -1,800 Descending Atlanta Center
06:06PM 34.8631 -83.3553 233° Southwest 475 547 19,500 -1,620 Descending Atlanta Center
06:07PM 34.7844 -83.4875 234° Southwest 481 554 18,200 -1,380 Descending Atlanta Center
06:08PM 34.7056 -83.6117 232° Southwest 457 526 16,800 -1,320 Descending Atlanta Center
06:09PM 34.6244 -83.7081 224° Southwest 431 496 15,600 -1,680 Descending Atlanta Center
06:10PM 34.5433 -83.8042 224° Southwest 407 468 13,500 -2,280 Descending Atlanta Center
06:11PM 34.4683 -83.8928 224° Southwest 391 450 11,100 -2,040 Descending Atlanta Center
06:12PM 34.4078 -83.9633 224° Southwest 361 415 9,500 -1,500 Descending Atlanta Center
06:13PM 34.3514 -84.0311 225° Southwest 305 351 8,100 -780 Descending Atlanta Center
06:14PM 34.2847 -84.0867 215° Southwest 290 334 8,000 -480 Descending Atlanta Center
06:15PM 34.2283 -84.1569 226° Southwest 297 342 7,200 -900 Descending Atlanta Center
06:16PM 34.1906 -84.2247 236° Southwest 287 330 6,300 -1,200 Descending Atlanta Center
06:17PM 34.1550 -84.3050 242° Southwest 275 316 4,800 -1,260 Descending Atlanta Center
06:18PM 34.1167 -84.3667 233° Southwest 264 304 4,000 -540 Descending Atlanta TRACON
06:19PM 34.0817 -84.4603 246° West 270 311 3,800 -480 Descending Atlanta Center
06:20PM 34.0561 -84.5428 250° West 270 311 3,000 -540 Descending Atlanta Center
06:21PM 34.0517 -84.6181 266° West 248 285 2,800 -420 Descending Atlanta Center
06:23PM 33.9833 -84.6333 191° South 138 159 1,900 -360 Descending Atlanta TRACON
06:24PM 33.9833 -84.6333 320° Northwest 138 159 1,900  Level Atlanta TRACON